CMCO2: Tar Creek nr Commerce 2NE

                                SHEF ID:       CMCO2     Tar Creek near Commerce, OK
STATION TYPE:

STAGE STAGE(2) RIV-FLOW BAT-LOAD
ft ft cfs volt
Ccp-Rev Ccp-Rev Ccp-Rev Ccp-Rev
(America/Chicago)
06/12 00:00 9.78 ---- 175 12.81
06/12 01:00 9.95 8.77 195 12.81
06/12 02:00 9.94 8.79 194 12.81
06/12 03:00 9.89 8.79 188 12.81
06/12 04:00 9.88 8.80 187 12.81
06/12 05:00 9.92 8.79 192 12.81
06/12 06:00 9.98 8.76 199 12.73
06/12 07:00 10.04 8.77 207 12.73
06/12 08:00 10.08 8.92 212 12.97
06/12 09:00 10.10 9.01 214 13.53
06/12 10:00 10.13 9.14 218 13.44
06/12 11:00 10.12 ---- 217 13.29
06/12 12:00 10.09 9.25 213 13.21
06/12 13:00 10.05 9.24 208 13.60
06/12 14:00 9.98 9.18 199 13.76
06/12 15:00 9.93 9.17 193 13.76
06/12 16:00 9.84 9.13 182 13.76
06/12 17:00 9.77 9.03 173 13.68
06/12 18:00 9.71 8.86 166 13.13
06/12 19:00 9.64 8.78 158 13.13
06/12 20:00 9.56 8.73 149 13.13
06/12 21:00 9.50 8.64 142 13.05
06/12 22:00 9.45 8.56 136 12.89
06/12 23:00 ---- ---- ---- ----
Data processed at Sat 13Jun2026 03:28 GMT

NOTICE: If you are parsing this page

Please convert to using our Data API. Starting early 2026 we will be migrating to: https://water.usace.army.mil with modern pages rendered in JavaScript. When this migration completes you will no longer be able to scrape this page! CWMSDataAPI (CDA)

Timeseries IDs (TSIDs)

TSIDs used from left to right in the data table
COMT.Stage.Inst.1Hour.0.Ccp-Rev
COMT.Stage-Alt.Inst.1Hour.0.Ccp-Rev
COMT.Flow.Inst.1Hour.0.Ccp-Rev
COMT.Volt-Battery Load.Inst.1Hour.0.Ccp-Rev

                            

All information presented herein is the property of the government of the United States of America and may be revised or deleted at any time without prior notice. Dissemination of this information without the expressed written consent of the Public Affairs Office, Tulsa District U.S. Army Corps of Engineers is strictly prohibited. These data are gathered electronically and, as presented, have NOT undergone any form of quality control. These data are NOT guaranteed to be valid or correct.